Terminal Aerodrome Forecast
Issued by NWS Omaha/Valley, NE

Home | Current Version | Previous Version | Graphics & Text | Print | Product List | Glossary On
Versions: 1 2 3 4 5 6 7 8 9 10 11 12 13
000
FTUS43 KOAX 302205 AAA
TAFOFK
TAF AMD
KOFK 302205Z 3022/3118 32018G25KT P6SM SCT015
     FM302230 33015G23KT P6SM BKN015
     FM310200 34014KT P6SM BKN015
     FM310500 34014KT P6SM SCT020
     FM311000 35010KT P6SM SKC=

USA.gov is the U.S. government's official web portal to all federal, state and local government web resources and services.